createdAt,value
2018-11-26T00:00:46.503Z,17.70
2018-11-26T00:03:15.059Z,18.50
2018-11-26T00:05:43.561Z,19.33
2018-11-26T00:08:12.890Z,18.77
2018-11-26T00:10:52.577Z,19.73
2018-11-26T00:13:21.118Z,21.57
2018-11-26T00:15:49.655Z,19.40
2018-11-26T00:18:18.181Z,20.63
2018-11-26T00:20:46.725Z,21.47
2018-11-26T00:23:15.245Z,21.53
2018-11-26T00:25:43.762Z,20.97
2018-11-26T00:28:12.256Z,20.70
2018-11-26T00:30:40.779Z,22.00
2018-11-26T00:33:09.308Z,21.63
2018-11-26T00:35:37.876Z,22.83
2018-11-26T00:38:06.471Z,22.53
2018-11-26T00:40:34.983Z,21.90
2018-11-26T00:43:03.512Z,22.43
2018-11-26T00:45:32.106Z,22.80
2018-11-26T00:48:00.605Z,23.63
2018-11-26T00:50:29.165Z,23.17
2018-11-26T00:52:57.694Z,21.93
2018-11-26T00:55:26.209Z,22.67
2018-11-26T00:57:54.730Z,23.50
2018-11-26T01:00:23.247Z,23.27
2018-11-26T01:02:51.767Z,23.47
2018-11-26T01:05:34.390Z,23.23
2018-11-26T01:08:03.072Z,24.20
2018-11-26T01:10:31.593Z,22.67
2018-11-26T01:13:00.088Z,22.93
2018-11-26T01:15:28.640Z,22.97
2018-11-26T01:17:57.169Z,23.73
2018-11-26T01:20:25.688Z,22.47
2018-11-26T01:22:54.240Z,23.23
2018-11-26T01:25:22.784Z,23.47
2018-11-26T01:27:51.338Z,22.33
2018-11-26T01:30:19.868Z,23.17
2018-11-26T01:32:48.446Z,22.63
2018-11-26T01:35:16.973Z,21.93
2018-11-26T01:37:45.509Z,21.43
2018-11-26T01:40:19.380Z,22.83
2018-11-26T01:42:48.114Z,22.00
2018-11-26T01:45:16.643Z,22.57
2018-11-26T01:47:45.164Z,22.57
2018-11-26T01:50:13.694Z,21.27
2018-11-26T01:52:42.208Z,22.23
2018-11-26T01:55:11.225Z,22.53
2018-11-26T01:57:39.824Z,22.00
2018-11-26T02:00:18.182Z,21.00
2018-11-26T02:02:46.719Z,21.80
2018-11-26T02:05:15.236Z,22.27
2018-11-26T02:07:43.784Z,23.37
2018-11-26T02:10:13.682Z,22.03
2018-11-26T02:12:42.204Z,24.13
2018-11-26T02:15:12.209Z,21.77
2018-11-26T02:17:40.919Z,21.67
2018-11-26T02:20:10.423Z,22.83
2018-11-26T02:22:38.957Z,22.47
2018-11-26T02:25:08.528Z,22.37
2018-11-26T02:27:37.152Z,23.37
2018-11-26T02:30:06.745Z,23.07
2018-11-26T02:32:35.250Z,21.80
2018-11-26T02:35:03.765Z,22.80
2018-11-26T02:37:32.296Z,22.43
2018-11-26T02:40:00.857Z,22.17
2018-11-26T02:42:29.384Z,22.80
2018-11-26T02:44:57.926Z,23.90
2018-11-26T02:47:26.443Z,23.47
2018-11-26T02:49:55.015Z,24.00
2018-11-26T02:52:23.509Z,25.17
2018-11-26T02:54:52.399Z,24.70
2018-11-26T02:57:20.620Z,25.83
2018-11-26T02:59:49.112Z,24.77
2018-11-26T03:02:17.632Z,27.60
2018-11-26T03:04:46.168Z,26.40
2018-11-26T03:07:14.686Z,28.50
2018-11-26T03:09:43.203Z,28.57
2018-11-26T03:12:11.719Z,29.33
2018-11-26T03:14:40.243Z,27.73
2018-11-26T03:17:08.756Z,29.87
2018-11-26T03:19:37.283Z,29.53
2018-11-26T03:22:05.835Z,30.43
2018-11-26T03:24:34.388Z,31.47
2018-11-26T03:27:02.899Z,30.73
2018-11-26T03:29:31.413Z,30.20
2018-11-26T03:31:59.922Z,31.13
2018-11-26T03:34:28.433Z,31.70
2018-11-26T03:36:56.923Z,30.70
2018-11-26T03:39:25.439Z,34.23
2018-11-26T03:41:53.956Z,32.90
2018-11-26T03:44:22.484Z,33.07
2018-11-26T03:46:51.031Z,33.47
2018-11-26T03:49:19.560Z,33.10
2018-11-26T03:51:48.075Z,33.40
2018-11-26T03:54:16.592Z,34.60
2018-11-26T03:56:45.100Z,33.93
2018-11-26T03:59:13.588Z,35.23
2018-11-26T04:01:42.121Z,34.70
2018-11-26T04:04:10.642Z,34.20
2018-11-26T04:06:39.136Z,34.03
2018-11-26T04:09:08.518Z,34.93
2018-11-26T04:11:37.303Z,32.03
2018-11-26T04:14:05.921Z,32.47
2018-11-26T04:16:34.418Z,33.13
2018-11-26T04:19:02.927Z,33.90
2018-11-26T04:21:31.477Z,34.37
2018-11-26T04:23:59.973Z,31.27
2018-11-26T04:26:28.492Z,33.70
2018-11-26T04:28:57.025Z,35.63
2018-11-26T04:31:25.728Z,35.47
2018-11-26T04:33:54.343Z,34.60
2018-11-26T04:36:22.922Z,32.80
2018-11-26T04:38:51.489Z,33.83
2018-11-26T04:41:20.367Z,34.00
2018-11-26T04:43:49.550Z,33.40
2018-11-26T04:46:18.644Z,35.77
2018-11-26T04:48:47.698Z,33.83
2018-11-26T04:51:16.533Z,34.10
2018-11-26T04:53:45.248Z,36.00
2018-11-26T04:56:13.800Z,34.50
2018-11-26T04:58:42.337Z,36.60
2018-11-26T05:01:10.947Z,38.17
2018-11-26T05:03:39.791Z,37.43
2018-11-26T05:06:08.920Z,36.07
2018-11-26T05:08:37.423Z,37.73
2018-11-26T05:11:06.155Z,35.60
2018-11-26T05:13:34.676Z,36.40
2018-11-26T05:16:03.201Z,37.60
2018-11-26T05:18:31.703Z,38.40
2018-11-26T05:21:00.230Z,36.43
2018-11-26T05:23:28.775Z,36.07
2018-11-26T05:25:57.295Z,36.27
2018-11-26T05:28:25.858Z,35.90
2018-11-26T05:30:54.362Z,34.57
2018-11-26T05:33:22.865Z,36.13
2018-11-26T05:35:51.377Z,36.53
2018-11-26T05:38:19.940Z,35.60
2018-11-26T05:40:48.475Z,33.60
2018-11-26T05:43:17.036Z,35.37
2018-11-26T05:45:45.590Z,33.60
2018-11-26T05:48:14.099Z,35.10
2018-11-26T05:50:42.643Z,33.93
2018-11-26T05:53:11.174Z,34.50
2018-11-26T05:55:39.704Z,30.70
2018-11-26T05:58:08.321Z,31.70
2018-11-26T06:00:37.263Z,33.50
2018-11-26T06:03:06.205Z,32.80
2018-11-26T06:05:35.392Z,30.13
2018-11-26T06:08:03.944Z,29.57
2018-11-26T06:10:32.476Z,29.07
2018-11-26T06:13:01.001Z,28.07
2018-11-26T06:15:29.528Z,27.23
2018-11-26T06:17:58.051Z,29.23
2018-11-26T06:20:26.585Z,27.57
2018-11-26T06:22:55.173Z,26.80
2018-11-26T06:25:23.687Z,28.97
2018-11-26T06:27:52.209Z,28.73
2018-11-26T06:30:20.751Z,26.90
2018-11-26T06:32:49.305Z,28.20
2018-11-26T06:35:21.882Z,28.57
2018-11-26T06:37:50.462Z,28.27
2018-11-26T06:40:19.023Z,27.37
2018-11-26T06:42:47.586Z,26.73
2018-11-26T06:45:17.311Z,27.13
2018-11-26T06:47:45.853Z,27.87
2018-11-26T06:50:15.646Z,27.40
2018-11-26T06:52:44.386Z,26.77
2018-11-26T06:55:14.182Z,27.47
2018-11-26T06:57:43.577Z,27.93
2018-11-26T07:00:16.420Z,26.40
2018-11-26T07:02:44.997Z,28.63
2018-11-26T07:05:15.459Z,26.60
2018-11-26T07:07:44.110Z,27.93
2018-11-26T07:10:13.269Z,29.50
2018-11-26T07:12:41.825Z,29.13
2018-11-26T07:15:13.521Z,27.60
2018-11-26T07:17:42.150Z,27.63
2018-11-26T07:20:12.958Z,29.37
2018-11-26T07:22:41.501Z,29.10
2018-11-26T07:25:14.169Z,30.67
2018-11-26T07:27:43.464Z,27.80
2018-11-26T07:30:14.265Z,30.07
2018-11-26T07:32:43.104Z,28.67
2018-11-26T07:35:11.997Z,31.07
2018-11-26T07:37:41.768Z,29.23
2018-11-26T07:40:12.459Z,29.90
2018-11-26T07:42:42.612Z,29.57
2018-11-26T07:45:13.124Z,29.17
2018-11-26T07:47:41.679Z,31.63
2018-11-26T07:50:11.828Z,29.67
2018-11-26T07:52:40.315Z,29.23
2018-11-26T07:55:12.208Z,30.43
2018-11-26T07:57:40.727Z,31.47
2018-11-26T08:00:12.604Z,31.13
2018-11-26T08:02:41.156Z,29.40
2018-11-26T08:05:11.407Z,29.93
2018-11-26T08:07:39.973Z,28.73
2018-11-26T08:10:12.560Z,29.20
2018-11-26T08:12:41.108Z,30.20
2018-11-26T08:15:12.299Z,29.97
2018-11-26T08:17:40.934Z,33.47
2018-11-26T08:20:10.116Z,30.33
2018-11-26T08:22:38.665Z,31.47
2018-11-26T08:25:11.201Z,31.03
2018-11-26T08:27:40.044Z,33.00
2018-11-26T08:30:19.351Z,30.33
2018-11-26T08:32:49.123Z,32.47
2018-11-26T08:35:17.968Z,31.80
2018-11-26T08:37:51.817Z,32.70
2018-11-26T08:40:30.878Z,30.97
2018-11-26T08:43:15.056Z,30.50
2018-11-26T08:45:50.961Z,32.97
2018-11-26T08:48:29.187Z,34.03
2018-11-26T08:50:59.932Z,32.23
2018-11-26T08:53:28.780Z,32.63
2018-11-26T08:55:57.477Z,31.90
2018-11-26T08:58:26.316Z,34.07
2018-11-26T09:01:00.254Z,33.17
2018-11-26T09:03:33.956Z,32.87
2018-11-26T09:06:04.298Z,33.20
2018-11-26T09:08:34.196Z,30.37
2018-11-26T09:11:03.810Z,32.33
2018-11-26T09:13:32.432Z,31.60
2018-11-26T09:16:01.193Z,29.13
2018-11-26T09:18:29.890Z,30.60
2018-11-26T09:20:58.701Z,28.27
2018-11-26T09:23:27.414Z,28.57
2018-11-26T09:25:56.298Z,27.60
2018-11-26T09:28:25.159Z,26.30
2018-11-26T09:30:53.801Z,26.83
2018-11-26T09:33:22.369Z,27.43
2018-11-26T09:35:50.893Z,27.87
2018-11-26T09:38:19.408Z,27.37
2018-11-26T09:40:47.903Z,28.97
2018-11-26T09:43:16.407Z,28.07
2018-11-26T09:45:44.924Z,27.97
2018-11-26T09:48:13.425Z,26.77
2018-11-26T09:50:41.959Z,29.63
2018-11-26T09:53:10.490Z,29.80
2018-11-26T09:55:38.988Z,29.90
2018-11-26T09:58:07.496Z,31.90
2018-11-26T10:00:36.029Z,29.80
2018-11-26T10:03:04.610Z,29.07
2018-11-26T10:05:33.124Z,29.37
2018-11-26T10:08:01.748Z,29.27
2018-11-26T10:10:30.315Z,27.40
2018-11-26T10:12:58.829Z,28.80
2018-11-26T10:15:28.069Z,28.23
2018-11-26T10:17:56.553Z,26.97
2018-11-26T10:20:25.096Z,28.27
2018-11-26T10:22:54.034Z,27.50
2018-11-26T10:25:23.545Z,27.87
2018-11-26T10:27:51.873Z,27.53
2018-11-26T10:30:21.887Z,28.23
2018-11-26T10:32:51.201Z,28.10
2018-11-26T10:35:20.288Z,28.63
2018-11-26T10:37:48.846Z,29.20
2018-11-26T10:40:18.408Z,28.07
2018-11-26T10:42:46.918Z,27.57
2018-11-26T10:45:17.299Z,28.13
2018-11-26T10:47:45.821Z,27.80
2018-11-26T10:50:17.155Z,26.67
2018-11-26T10:52:47.057Z,25.97
2018-11-26T10:55:16.956Z,27.23
2018-11-26T10:57:45.482Z,25.27
2018-11-26T11:00:20.309Z,25.83
2018-11-26T11:02:48.976Z,26.40
2018-11-26T11:05:17.476Z,26.57
2018-11-26T11:07:45.983Z,26.67
2018-11-26T11:10:16.582Z,26.70
2018-11-26T11:12:45.083Z,25.37
2018-11-26T11:15:13.837Z,25.30
2018-11-26T11:17:42.352Z,24.73
2018-11-26T11:20:18.763Z,23.30
2018-11-26T11:22:47.311Z,21.57
2018-11-26T11:25:16.802Z,22.30
2018-11-26T11:27:45.341Z,24.90
2018-11-26T11:30:19.653Z,23.20
2018-11-26T11:32:48.208Z,24.10
2018-11-26T11:35:17.090Z,23.87
2018-11-26T11:37:46.649Z,21.03
2018-11-26T11:40:32.210Z,23.60
2018-11-26T11:43:01.299Z,20.90
2018-11-26T11:45:30.526Z,22.60
2018-11-26T11:47:59.051Z,22.17
2018-11-26T11:50:27.535Z,24.07
2018-11-26T11:52:56.029Z,22.43
2018-11-26T11:55:25.565Z,23.53
2018-11-26T11:57:54.212Z,24.63
2018-11-26T12:00:30.453Z,25.57
2018-11-26T12:03:00.066Z,26.07
2018-11-26T12:05:28.576Z,25.27
2018-11-26T12:07:57.615Z,25.37
2018-11-26T12:10:26.182Z,25.20
2018-11-26T12:12:55.216Z,24.67
2018-11-26T12:15:23.729Z,26.27
2018-11-26T12:17:52.486Z,23.50
2018-11-26T12:20:20.985Z,23.00
2018-11-26T12:22:49.974Z,24.53
2018-11-26T12:25:19.743Z,25.77
2018-11-26T12:27:48.302Z,27.57
2018-11-26T12:30:24.010Z,25.73
2018-11-26T12:32:52.517Z,25.57
2018-11-26T12:35:21.502Z,27.77
2018-11-26T12:37:49.998Z,25.37
2018-11-26T12:40:23.654Z,25.87
2018-11-26T12:42:54.800Z,25.77
2018-11-26T12:45:31.551Z,24.47
2018-11-26T12:48:00.203Z,26.23
2018-11-26T12:50:29.315Z,25.67
2018-11-26T12:52:57.826Z,26.43
2018-11-26T12:55:27.078Z,26.23
2018-11-26T12:57:56.406Z,27.00
2018-11-26T13:00:26.621Z,26.33
2018-11-26T13:02:57.459Z,26.57
2018-11-26T13:05:25.978Z,27.37
2018-11-26T13:07:55.048Z,26.43
2018-11-26T13:10:24.043Z,27.60
2018-11-26T13:12:53.499Z,27.43
2018-11-26T13:15:23.283Z,27.00
2018-11-26T13:17:52.178Z,27.33
2018-11-26T13:20:23.397Z,28.37
2018-11-26T13:22:52.310Z,28.10
2018-11-26T13:25:23.778Z,26.07
2018-11-26T13:27:54.377Z,26.27
2018-11-26T13:30:24.971Z,26.80
2018-11-26T13:32:54.968Z,27.93
2018-11-26T13:35:23.483Z,29.33
2018-11-26T13:37:51.977Z,29.23
2018-11-26T13:40:20.953Z,30.67
2018-11-26T13:42:49.878Z,29.67
2018-11-26T13:45:33.235Z,29.47
2018-11-26T13:48:01.757Z,29.20
2018-11-26T13:50:33.073Z,31.00
2018-11-26T13:53:01.698Z,30.03
2018-11-26T13:55:30.215Z,32.00
2018-11-26T13:57:58.840Z,31.50
2018-11-26T14:00:27.312Z,33.40
2018-11-26T14:02:55.848Z,31.90
2018-11-26T14:05:24.365Z,33.20
2018-11-26T14:07:52.860Z,31.67
2018-11-26T14:10:23.593Z,31.80
2018-11-26T14:12:57.695Z,33.20
2018-11-26T14:15:26.274Z,33.60
2018-11-26T14:17:54.767Z,32.90
2018-11-26T14:20:23.271Z,33.63
2018-11-26T14:22:51.799Z,33.07
2018-11-26T14:25:20.367Z,35.33
2018-11-26T14:27:49.275Z,35.10
2018-11-26T14:30:19.775Z,35.07
2018-11-26T14:32:48.374Z,34.13
2018-11-26T14:35:16.939Z,36.00
2018-11-26T14:37:46.266Z,33.47
2018-11-26T14:40:21.209Z,34.73
2018-11-26T14:42:49.697Z,34.70
2018-11-26T14:45:18.239Z,33.23
2018-11-26T14:47:46.780Z,34.23
2018-11-26T14:50:16.429Z,33.17
2018-11-26T14:52:46.279Z,35.83
2018-11-26T14:55:18.389Z,36.03
2018-11-26T14:57:47.916Z,36.63
2018-11-26T15:00:17.655Z,36.60
2018-11-26T15:02:46.189Z,35.30
2018-11-26T15:05:14.832Z,36.63
2018-11-26T15:07:43.387Z,37.13
2018-11-26T15:10:17.083Z,35.87
2018-11-26T15:12:45.950Z,36.23
2018-11-26T15:15:16.701Z,36.23
2018-11-26T15:17:45.789Z,36.67
2018-11-26T15:20:17.240Z,38.17
2018-11-26T15:22:45.781Z,35.20
2018-11-26T15:25:16.442Z,35.87
2018-11-26T15:27:44.949Z,38.20
2018-11-26T15:30:31.385Z,40.00
2018-11-26T15:32:59.921Z,36.63
2018-11-26T15:35:28.416Z,39.73
2018-11-26T15:37:56.970Z,38.77
2018-11-26T15:40:25.484Z,39.93
2018-11-26T15:42:54.000Z,37.93
2018-11-26T15:45:24.429Z,40.07
2018-11-26T15:47:53.754Z,38.00
2018-11-26T15:50:22.286Z,40.07
2018-11-26T15:52:50.786Z,38.27
2018-11-26T15:55:20.365Z,39.87
2018-11-26T15:57:49.105Z,36.73
2018-11-26T16:00:20.682Z,38.90
2018-11-26T16:02:49.327Z,37.40
2018-11-26T16:05:21.199Z,38.03
2018-11-26T16:07:51.054Z,38.40
2018-11-26T16:10:19.547Z,38.13
2018-11-26T16:12:49.792Z,38.07
2018-11-26T16:15:19.903Z,37.57
2018-11-26T16:17:48.624Z,36.23
2018-11-26T16:20:18.654Z,35.20
2018-11-26T16:22:47.238Z,36.17
2018-11-26T16:25:17.981Z,34.83
2018-11-26T16:27:46.472Z,36.47
2018-11-26T16:30:15.906Z,35.37
2018-11-26T16:32:46.238Z,33.97
2018-11-26T16:35:18.923Z,37.03
2018-11-26T16:37:47.411Z,36.60
2018-11-26T16:40:16.801Z,35.73
2018-11-26T16:42:45.339Z,35.93
2018-11-26T16:45:23.017Z,37.20
2018-11-26T16:47:52.481Z,35.60
2018-11-26T16:50:22.438Z,33.87
2018-11-26T16:52:51.744Z,34.77
2018-11-26T16:55:19.543Z,36.00
2018-11-26T16:57:48.073Z,37.77
2018-11-26T17:00:17.787Z,39.20
2018-11-26T17:02:47.321Z,36.80
2018-11-26T17:05:22.434Z,37.83
2018-11-26T17:07:49.963Z,39.20
2018-11-26T17:10:18.432Z,39.77
2018-11-26T17:12:46.946Z,39.37
2018-11-26T17:15:16.546Z,39.80
2018-11-26T17:17:45.087Z,39.97
2018-11-26T17:20:14.626Z,40.07
2018-11-26T17:22:43.364Z,39.47
2018-11-26T17:25:12.856Z,39.37
2018-11-26T17:27:41.780Z,38.63
2018-11-26T17:30:13.700Z,38.10
2018-11-26T17:32:42.208Z,38.13
2018-11-26T17:35:12.034Z,40.30
2018-11-26T17:37:42.817Z,39.40
2018-11-26T17:40:11.685Z,39.00
2018-11-26T17:42:40.209Z,39.97
2018-11-26T17:45:10.499Z,38.47
2018-11-26T17:47:39.092Z,40.00
2018-11-26T17:50:14.324Z,41.17
2018-11-26T17:52:42.809Z,37.87
2018-11-26T17:55:11.474Z,39.93
2018-11-26T17:57:39.957Z,38.50
2018-11-26T18:00:12.928Z,39.67
2018-11-26T18:02:42.239Z,38.47
2018-11-26T18:05:20.296Z,39.73
2018-11-26T18:07:51.100Z,37.73
2018-11-26T18:10:19.645Z,37.97
2018-11-26T18:12:48.157Z,39.60
2018-11-26T18:15:16.701Z,39.70
2018-11-26T18:17:46.036Z,42.40
2018-11-26T18:20:15.974Z,38.80
2018-11-26T18:22:45.645Z,39.00
2018-11-26T18:25:14.461Z,41.23
2018-11-26T18:28:02.578Z,37.53
2018-11-26T18:30:36.826Z,36.30
2018-11-26T18:33:05.667Z,37.47
2018-11-26T18:35:34.220Z,37.10
2018-11-26T18:38:02.734Z,36.93
2018-11-26T18:40:31.229Z,35.53
2018-11-26T18:42:59.724Z,36.70
2018-11-26T18:45:28.224Z,35.03
2018-11-26T18:47:56.733Z,34.33
2018-11-26T18:50:25.258Z,36.47
2018-11-26T18:52:53.749Z,35.53
2018-11-26T18:55:22.262Z,37.77
2018-11-26T18:57:50.790Z,38.23
2018-11-26T19:00:23.663Z,37.27
2018-11-26T19:02:53.014Z,39.60
2018-11-26T19:05:21.728Z,38.83
2018-11-26T19:07:51.039Z,38.83
2018-11-26T19:10:21.866Z,37.07
2018-11-26T19:13:57.722Z,35.50
2018-11-26T19:16:28.348Z,35.37
2018-11-26T19:18:56.913Z,34.23
2018-11-26T19:21:25.445Z,37.17
2018-11-26T19:23:53.970Z,35.73
2018-11-26T19:26:22.510Z,36.53
2018-11-26T19:28:51.054Z,35.37
2018-11-26T19:31:19.578Z,35.87
2018-11-26T19:33:48.094Z,34.60
2018-11-26T19:36:16.622Z,34.33
2018-11-26T19:38:45.149Z,33.77
2018-11-26T19:41:13.644Z,31.97
2018-11-26T19:43:42.144Z,34.33
2018-11-26T19:46:10.722Z,36.63
2018-11-26T19:48:39.227Z,34.10
2018-11-26T19:51:07.728Z,31.60
2018-11-26T19:53:36.283Z,33.50
2018-11-26T19:56:04.809Z,32.47
2018-11-26T19:58:33.323Z,32.60
2018-11-26T20:01:01.884Z,33.70
2018-11-26T20:03:35.533Z,32.10
2018-11-26T20:06:21.445Z,35.17
2018-11-26T20:08:51.633Z,32.63
2018-11-26T20:11:20.244Z,33.57
2018-11-26T20:13:48.767Z,32.80
2018-11-26T20:16:20.985Z,31.17
2018-11-26T20:18:49.522Z,31.57
2018-11-26T20:21:18.023Z,31.30
2018-11-26T20:23:46.513Z,33.47
2018-11-26T20:26:15.011Z,34.47
2018-11-26T20:28:43.554Z,33.97
2018-11-26T20:31:12.246Z,33.13
2018-11-26T20:33:40.733Z,32.40
2018-11-26T20:36:11.065Z,34.03
2018-11-26T20:38:39.571Z,33.37
2018-11-26T20:41:09.373Z,34.33
2018-11-26T20:43:37.891Z,32.70
2018-11-26T20:46:06.520Z,35.37
2018-11-26T20:48:35.036Z,33.57
2018-11-26T20:51:03.545Z,34.00
2018-11-26T20:53:32.127Z,32.93
2018-11-26T20:56:01.291Z,32.63
2018-11-26T20:58:29.860Z,32.60
2018-11-26T21:00:58.569Z,31.70
2018-11-26T21:03:31.448Z,34.97
2018-11-26T21:06:00.544Z,33.27
2018-11-26T21:08:29.117Z,34.50
2018-11-26T21:10:57.722Z,33.83
2018-11-26T21:13:26.254Z,33.33
2018-11-26T21:15:54.841Z,33.97
2018-11-26T21:18:23.434Z,33.67
2018-11-26T21:20:52.200Z,35.07
2018-11-26T21:23:25.081Z,33.03
2018-11-26T21:25:54.010Z,33.37
2018-11-26T21:28:22.568Z,33.63
2018-11-26T21:30:52.265Z,31.97
2018-11-26T21:33:19.748Z,29.93
2018-11-26T21:35:48.342Z,30.80
2018-11-26T21:38:16.888Z,30.63
2018-11-26T21:40:45.562Z,31.13
2018-11-26T21:43:14.186Z,33.07
2018-11-26T21:45:45.861Z,32.20
2018-11-26T21:48:14.443Z,34.83
2018-11-26T21:50:43.022Z,35.37
2018-11-26T21:53:11.608Z,33.50
2018-11-26T21:55:40.175Z,35.97
2018-11-26T21:58:08.763Z,33.50
2018-11-26T22:00:38.809Z,34.67
2018-11-26T22:03:11.911Z,33.37
2018-11-26T22:05:41.637Z,33.23
2018-11-26T22:08:10.886Z,32.97
2018-11-26T22:10:43.457Z,35.00
2018-11-26T22:13:13.454Z,36.60
2018-11-26T22:15:42.053Z,35.03
2018-11-26T22:18:10.623Z,35.17
2018-11-26T22:20:39.217Z,34.07
2018-11-26T22:23:08.592Z,36.47
2018-11-26T22:25:37.103Z,39.17
2018-11-26T22:28:07.337Z,45.13
2018-11-26T22:30:36.868Z,39.80
2018-11-26T22:33:05.542Z,39.70
2018-11-26T22:35:34.144Z,41.07
2018-11-26T22:38:02.703Z,39.73
2018-11-26T22:40:31.211Z,38.40
2018-11-26T22:42:59.737Z,40.03
2018-11-26T22:45:32.208Z,39.13
2018-11-26T22:48:07.310Z,41.30
2018-11-26T22:50:36.813Z,37.73
2018-11-26T22:53:05.781Z,36.07
2018-11-26T22:55:34.300Z,36.00
2018-11-26T22:58:02.863Z,36.37
2018-11-26T23:00:39.360Z,35.87
2018-11-26T23:03:07.857Z,36.70
2018-11-26T23:05:36.472Z,35.93
2018-11-26T23:08:05.559Z,37.23
2018-11-26T23:10:34.078Z,36.57
2018-11-26T23:13:02.598Z,37.43
2018-11-26T23:15:31.129Z,38.47
2018-11-26T23:17:59.703Z,36.73
2018-11-26T23:20:28.233Z,37.43
2018-11-26T23:22:56.761Z,37.57
2018-11-26T23:25:25.255Z,38.77
2018-11-26T23:27:53.751Z,37.37
2018-11-26T23:30:24.317Z,36.67
2018-11-26T23:32:55.835Z,36.93
2018-11-26T23:35:24.382Z,36.50
2018-11-26T23:37:53.896Z,37.83
2018-11-26T23:40:22.450Z,37.17
2018-11-26T23:42:50.995Z,35.93
2018-11-26T23:45:20.689Z,37.13
2018-11-26T23:47:49.205Z,37.40
2018-11-26T23:50:17.937Z,35.77
2018-11-26T23:52:46.718Z,38.23
2018-11-26T23:55:16.185Z,37.00
2018-11-26T23:57:44.705Z,37.53
